Time;durP1;ratioP1;P1;durP2;ratioP2;P2;SDS_P1;SDS_P2;PMS_P1;PMS_P2;Temp;Humidity;BMP_temperature;BMP_pressure;BME280_temperature;BME280_humidity;BME280_pressure;Samples;Min_cycle;Max_cycle;Signal;HPM_P1;HPM_P2
2022/10/05 00:00:21;;;;;;;9.65;7.60;;;;;;;14.43;80.30;101703.81;4975916;28;20328;-83
2022/10/05 00:02:48;;;;;;;8.95;7.88;;;;;;;14.41;80.71;101703.97;4987740;28;20034;-83
2022/10/05 00:05:31;;;;;;;9.90;7.97;;;;;;;14.33;81.66;101701.13;4973719;28;20112;-82
2022/10/05 00:08:09;;;;;;;11.73;7.97;;;;;;;14.40;81.00;101706.72;4988583;28;20034;-83
2022/10/05 00:10:35;;;;;;;9.70;8.07;;;;;;;14.40;81.01;101685.81;4986124;28;20065;-82
2022/10/05 00:13:00;;;;;;;10.05;8.02;;;;;;;14.42;80.82;101683.91;4988254;28;20539;-82
2022/10/05 00:15:25;;;;;;;11.15;8.00;;;;;;;14.37;80.36;101659.97;4986984;28;20022;-81
2022/10/05 00:17:51;;;;;;;9.98;7.82;;;;;;;14.42;80.43;101673.47;4987889;28;20599;-81
2022/10/05 00:20:22;;;;;;;9.60;8.02;;;;;;;14.33;81.35;101665.44;4986115;28;20479;-82
2022/10/05 00:22:48;;;;;;;11.57;8.35;;;;;;;14.40;80.92;101664.94;4987683;28;20042;-83
2022/10/05 00:25:19;;;;;;;9.50;7.97;;;;;;;14.34;81.43;101661.88;4990058;28;20014;-83
2022/10/05 00:27:52;;;;;;;9.48;8.15;;;;;;;14.28;81.44;101654.59;4987295;28;20030;-83
2022/10/05 00:30:19;;;;;;;10.73;7.72;;;;;;;14.25;81.34;101651.38;4978638;28;20022;-82
2022/10/05 00:32:45;;;;;;;9.90;8.05;;;;;;;14.32;81.26;101663.78;4988082;28;20048;-82
2022/10/05 00:35:13;;;;;;;10.05;8.38;;;;;;;14.21;81.36;101657.81;4986905;28;20038;-83
2022/10/05 00:37:38;;;;;;;10.65;8.18;;;;;;;14.26;81.62;101659.09;4983909;28;20026;-83
2022/10/05 00:40:32;;;;;;;11.85;8.93;;;;;;;14.25;81.90;101661.81;4987205;28;20050;-83
2022/10/05 00:43:06;;;;;;;10.45;8.07;;;;;;;14.32;82.01;101684.66;4945778;29;20035;-83
2022/10/05 00:45:39;;;;;;;10.60;8.45;;;;;;;14.20;81.93;101662.22;4945702;29;20075;-83
2022/10/05 00:48:45;;;;;;;11.15;8.82;;;;;;;14.37;81.56;101670.41;4936059;29;20563;-83
2022/10/05 00:51:26;;;;;;;10.88;8.40;;;;;;;14.24;81.79;101658.41;4940583;28;20635;-83
2022/10/05 00:54:15;;;;;;;10.73;8.63;;;;;;;14.32;81.88;101671.63;4932983;29;20065;-83
2022/10/05 00:56:56;;;;;;;11.55;8.93;;;;;;;14.30;82.03;101665.72;4934218;29;20401;-84
2022/10/05 00:59:43;;;;;;;13.85;8.45;;;;;;;14.23;82.58;101664.56;4928886;29;20023;-83
2022/10/05 01:02:19;;;;;;;11.70;8.32;;;;;;;14.18;82.31;101651.09;4944971;29;20086;-83
2022/10/05 01:05:17;;;;;;;13.07;9.00;;;;;;;14.24;82.40;101655.78;4946182;29;20035;-83
2022/10/05 01:08:00;;;;;;;10.75;8.45;;;;;;;14.19;82.86;101647.50;4922155;29;20529;-84
2022/10/05 01:11:07;;;;;;;13.23;9.05;;;;;;;14.01;83.20;101625.56;4942837;29;20063;-83
2022/10/05 01:13:57;;;;;;;12.32;9.35;;;;;;;13.89;82.98;101600.53;4928257;29;20050;-83
2022/10/05 01:16:32;;;;;;;12.15;9.10;;;;;;;14.02;83.17;101624.63;4947381;28;20111;-86
2022/10/05 01:19:28;;;;;;;9.98;8.88;;;;;;;14.17;83.02;101644.22;4947200;28;20027;-86
2022/10/05 01:22:17;;;;;;;10.38;8.88;;;;;;;13.93;83.24;101604.50;4971191;28;20399;-86
2022/10/05 01:24:56;;;;;;;12.10;9.13;;;;;;;14.18;82.82;101642.44;4980893;28;20030;-86
2022/10/05 01:27:56;;;;;;;12.32;9.35;;;;;;;14.13;83.55;101642.81;4980357;28;20037;-85
2022/10/05 01:30:22;;;;;;;10.43;9.00;;;;;;;13.91;83.19;101601.22;4985747;28;20069;-85
2022/10/05 01:32:56;;;;;;;10.75;9.15;;;;;;;14.11;83.44;101634.28;4979434;28;20034;-86
2022/10/05 01:35:45;;;;;;;12.27;9.70;;;;;;;14.08;83.97;101634.53;4979466;28;20431;-86
2022/10/05 01:38:25;;;;;;;11.68;9.50;;;;;;;14.11;83.50;101629.06;4977306;28;20395;-85
2022/10/05 01:40:53;;;;;;;13.48;9.45;;;;;;;14.03;84.04;101626.25;4980655;28;20050;-86
2022/10/05 01:43:37;;;;;;;10.85;9.65;;;;;;;14.09;83.52;101625.75;4983327;28;20046;-86
2022/10/05 01:46:26;;;;;;;11.45;9.60;;;;;;;14.09;83.98;101625.75;4985599;28;20274;-85
2022/10/05 01:48:57;;;;;;;12.45;9.48;;;;;;;14.03;84.35;101616.66;4986428;28;20085;-84
2022/10/05 01:51:41;;;;;;;12.05;9.15;;;;;;;14.06;84.10;101610.38;4999321;28;20038;-85
2022/10/05 01:54:29;;;;;;;11.63;10.10;;;;;;;14.09;83.74;101589.22;4983357;28;20034;-83
2022/10/05 01:57:10;;;;;;;11.98;9.88;;;;;;;14.00;83.82;101558.72;4979537;28;20034;-84
2022/10/05 01:59:38;;;;;;;13.07;9.73;;;;;;;14.08;83.90;101577.16;4986747;28;20308;-84
2022/10/05 02:02:12;;;;;;;11.23;9.88;;;;;;;13.99;84.03;101578.75;4979511;28;20026;-84
2022/10/05 02:04:44;;;;;;;11.52;9.73;;;;;;;14.00;84.22;101574.38;4985357;28;20767;-84
2022/10/05 02:07:21;;;;;;;12.90;10.27;;;;;;;14.03;84.29;101568.88;4984645;28;20022;-85
2022/10/05 02:09:57;;;;;;;10.73;9.52;;;;;;;14.02;83.89;101567.22;4985864;28;20030;-87
2022/10/05 02:12:26;;;;;;;11.95;10.68;;;;;;;14.01;84.06;101570.81;4984410;28;20041;-87
2022/10/05 02:14:57;;;;;;;13.23;10.23;;;;;;;13.94;84.14;101564.47;4985314;28;20034;-85
2022/10/05 02:17:39;;;;;;;14.75;10.35;;;;;;;13.94;84.48;101561.84;4981599;28;20469;-85
2022/10/05 02:20:09;;;;;;;12.52;10.88;;;;;;;13.90;84.62;101557.84;4979298;28;20026;-86
2022/10/05 02:22:47;;;;;;;12.82;10.88;;;;;;;13.91;84.35;101560.31;4984762;28;20034;-86
2022/10/05 02:25:16;;;;;;;13.93;10.48;;;;;;;13.93;84.42;101562.78;4984476;28;20057;-86
2022/10/05 02:28:10;;;;;;;14.02;11.27;;;;;;;13.92;84.55;101550.69;4986115;28;20050;-86
2022/10/05 02:30:46;;;;;;;13.10;10.35;;;;;;;13.92;84.82;101555.91;4974692;28;20514;-86
2022/10/05 02:33:29;;;;;;;12.70;10.70;;;;;;;13.92;84.78;101545.47;4989684;28;20373;-85
2022/10/05 02:36:19;;;;;;;12.75;11.45;;;;;;;13.83;84.99;101541.88;4988570;28;20038;-86
2022/10/05 02:39:03;;;;;;;13.27;11.88;;;;;;;13.88;85.12;101538.88;4979201;28;20042;-86
2022/10/05 02:41:35;;;;;;;13.48;12.07;;;;;;;13.85;85.14;101536.53;4976790;28;20053;-85
2022/10/05 02:44:09;;;;;;;13.98;12.40;;;;;;;13.78;84.83;101510.97;4985076;28;20038;-86
2022/10/05 02:46:45;;;;;;;16.08;12.43;;;;;;;13.82;85.00;101520.19;4988904;28;20018;-87
2022/10/05 02:49:43;;;;;;;14.10;12.25;;;;;;;13.81;85.27;101523.75;4984916;28;20034;-84
2022/10/05 02:52:15;;;;;;;14.95;12.13;;;;;;;13.75;85.38;101513.81;4976686;28;20033;-85
2022/10/05 02:54:59;;;;;;;15.70;12.82;;;;;;;13.71;85.79;101515.06;4986202;28;20034;-84
2022/10/05 02:57:38;;;;;;;14.38;12.77;;;;;;;13.73;85.60;101518.34;4989051;28;20030;-86
2022/10/05 03:00:20;;;;;;;13.90;12.48;;;;;;;13.74;85.33;101514.78;4989498;28;20034;-87
2022/10/05 03:03:07;;;;;;;15.48;12.70;;;;;;;13.76;85.34;101518.13;5003281;28;20084;-85
2022/10/05 03:05:54;;;;;;;14.77;13.25;;;;;;;13.67;86.17;101521.47;4988594;28;20526;-86
2022/10/05 03:08:33;;;;;;;14.57;13.07;;;;;;;13.70;86.11;101516.00;4984389;28;20041;-86
2022/10/05 03:11:10;;;;;;;13.93;12.52;;;;;;;13.71;85.81;101517.66;4989356;28;20030;-86
2022/10/05 03:13:48;;;;;;;15.23;12.35;;;;;;;13.69;85.65;101516.13;4978732;28;20118;-86
2022/10/05 03:16:33;;;;;;;;;;;;;;;13.79;85.15;101517.84;4987926;28;20053;-85
2022/10/05 03:19:27;;;;;;;15.48;12.15;;;;;;;13.72;85.71;101514.09;4981938;28;20450;-86
2022/10/05 03:21:56;;;;;;;12.90;11.25;;;;;;;13.71;85.74;101517.66;4930343;29;20047;-85
2022/10/05 03:25:20;;;;;;;13.98;11.77;;;;;;;13.68;85.86;101507.47;4944820;29;20075;-87
2022/10/05 03:27:56;;;;;;;14.80;12.05;;;;;;;13.72;85.82;101511.50;4870439;29;20064;-86
2022/10/05 03:30:24;;;;;;;13.15;11.23;;;;;;;13.65;86.25;101507.75;4878836;29;20036;-86
2022/10/05 03:33:17;;;;;;;13.77;12.03;;;;;;;13.70;85.80;101510.78;4888475;29;20483;-86
2022/10/05 03:36:18;;;;;;;12.73;11.38;;;;;;;13.69;85.99;101511.75;4887073;29;20180;-86
2022/10/05 03:39:09;;;;;;;13.02;11.13;;;;;;;13.69;86.32;101522.16;4883854;29;20041;-86
2022/10/05 03:41:45;;;;;;;12.77;11.35;;;;;;;13.66;86.18;101508.59;4889530;29;20087;-86
2022/10/05 03:44:19;;;;;;;13.50;12.10;;;;;;;13.64;85.94;101497.44;4869853;29;20063;-86
2022/10/05 03:47:25;;;;;;;13.00;11.10;;;;;;;13.74;85.86;101517.41;4883946;29;20044;-84
2022/10/05 03:50:24;;;;;;;14.18;11.20;;;;;;;13.73;85.93;101518.34;4890711;29;20088;-85
2022/10/05 03:53:02;;;;;;;12.13;10.82;;;;;;;13.58;85.91;101500.56;4890317;29;20052;-85
2022/10/05 03:56:06;;;;;;;13.63;10.95;;;;;;;13.66;86.02;101509.41;4890102;29;20036;-86
2022/10/05 03:58:38;;;;;;;13.60;11.50;;;;;;;13.64;86.21;101515.69;4930721;28;20045;-86
2022/10/05 04:01:29;;;;;;;14.02;10.90;;;;;;;13.73;85.99;101520.13;4987185;28;20050;-84
2022/10/05 04:04:02;;;;;;;12.60;11.30;;;;;;;13.54;86.56;101505.22;4988494;28;20101;-84
2022/10/05 04:06:35;;;;;;;12.55;11.18;;;;;;;13.67;86.55;101520.66;4988278;28;20414;-84
2022/10/05 04:09:14;;;;;;;13.32;11.10;;;;;;;13.58;86.26;101500.56;4976396;28;20036;-83
2022/10/05 04:11:47;;;;;;;12.32;10.60;;;;;;;13.57;86.13;101489.31;4981820;28;20045;-84
2022/10/05 04:14:16;;;;;;;12.77;11.43;;;;;;;13.69;86.34;101506.53;4985103;28;20034;-84
2022/10/05 04:16:48;;;;;;;13.20;11.40;;;;;;;13.64;86.71;101505.25;4986834;28;20184;-86
2022/10/05 04:19:20;;;;;;;12.25;10.88;;;;;;;13.63;86.42;101499.22;4983566;28;20403;-83
2022/10/05 04:21:52;;;;;;;13.57;11.02;;;;;;;13.71;86.19;101499.41;4987071;28;20026;-84
2022/10/05 04:24:26;;;;;;;11.60;10.07;;;;;;;13.68;86.36;101502.28;4978401;28;20036;-84
2022/10/05 04:26:58;;;;;;;13.63;11.00;;;;;;;13.61;86.46;101490.72;4987198;28;20084;-84
2022/10/05 04:29:37;;;;;;;11.48;9.95;;;;;;;13.67;86.42;101495.41;4999167;28;20027;-84
2022/10/05 04:32:11;;;;;;;12.13;10.63;;;;;;;13.63;86.21;101488.78;4985386;28;20022;-84
2022/10/05 04:34:57;;;;;;;12.68;10.52;;;;;;;13.69;86.44;101498.69;4984549;28;20046;-85
2022/10/05 04:38:12;;;;;;;14.05;10.90;;;;;;;13.63;86.64;101494.00;4985825;28;20107;-84
2022/10/05 04:41:06;;;;;;;13.10;10.40;;;;;;;13.65;86.55;101497.31;4971822;28;20062;-84
2022/10/05 04:43:58;;;;;;;12.13;10.43;;;;;;;13.63;86.43;101488.78;4972080;28;20484;-85
2022/10/05 04:46:46;;;;;;;12.18;10.15;;;;;;;13.66;86.44;101490.34;4982186;28;20034;-84
2022/10/05 04:49:33;;;;;;;12.25;10.50;;;;;;;13.63;86.60;101490.56;4999161;28;20117;-84
2022/10/05 04:52:10;;;;;;;12.15;10.27;;;;;;;13.64;86.33;101482.63;4973577;28;20046;-84
2022/10/05 04:54:46;;;;;;;11.63;9.90;;;;;;;13.63;86.43;101478.38;4986584;28;20045;-84
2022/10/05 04:57:56;;;;;;;12.50;10.48;;;;;;;13.67;86.53;101474.56;4984545;28;20073;-84
2022/10/05 05:00:35;;;;;;;12.52;10.18;;;;;;;13.58;86.51;101464.88;4983908;28;20062;-84
2022/10/05 05:03:21;;;;;;;13.02;10.00;;;;;;;13.45;86.31;101443.44;4973347;28;20042;-84
2022/10/05 05:06:29;;;;;;;12.23;9.90;;;;;;;13.54;86.23;101464.34;4976351;28;20102;-86
2022/10/05 05:09:12;;;;;;;12.35;10.20;;;;;;;13.59;86.11;101471.78;4983456;28;20117;-85
2022/10/05 05:12:02;;;;;;;12.68;10.10;;;;;;;13.53;86.69;101462.69;4973326;28;20039;-84
2022/10/05 05:14:30;;;;;;;12.98;9.88;;;;;;;13.55;86.50;101466.00;4981874;28;20472;-84
2022/10/05 05:17:16;;;;;;;13.57;9.63;;;;;;;13.51;86.37;101451.56;5002433;28;20022;-84
2022/10/05 05:20:12;;;;;;;11.88;9.85;;;;;;;13.47;86.48;101451.94;4977002;28;20033;-84
2022/10/05 05:22:52;;;;;;;12.82;10.25;;;;;;;13.52;86.39;101454.97;4980259;28;20073;-85
2022/10/05 05:25:17;;;;;;;12.25;9.50;;;;;;;13.52;86.39;101454.97;4984800;28;20040;-84
2022/10/05 05:27:49;;;;;;;10.65;9.50;;;;;;;13.53;86.80;101454.88;4985706;28;20045;-84
2022/10/05 05:30:22;;;;;;;11.52;9.93;;;;;;;13.49;86.11;101455.25;4982239;28;20034;-85
2022/10/05 05:32:53;;;;;;;12.15;9.82;;;;;;;13.51;85.99;101463.75;4981993;28;20128;-84
2022/10/05 05:35:45;;;;;;;10.95;9.55;;;;;;;13.54;86.10;101453.09;4980583;28;20061;-85
2022/10/05 05:38:29;;;;;;;10.38;9.27;;;;;;;13.55;85.93;101459.94;4979190;28;20037;-85
2022/10/05 05:41:07;;;;;;;10.80;9.07;;;;;;;13.51;85.43;101453.34;4984758;28;20145;-84
2022/10/05 05:43:58;;;;;;;10.38;9.25;;;;;;;13.50;85.65;101455.13;4983664;28;20423;-85
2022/10/05 05:46:33;;;;;;;10.98;8.90;;;;;;;13.48;85.67;101458.81;4986365;28;20455;-85
2022/10/05 05:49:05;;;;;;;12.52;9.48;;;;;;;13.33;86.37;101447.06;4983413;28;20053;-85
2022/10/05 05:51:42;;;;;;;11.35;9.10;;;;;;;13.47;85.65;101457.16;4983462;28;20030;-85
2022/10/05 05:54:25;;;;;;;10.10;8.43;;;;;;;13.49;85.87;101460.47;5002077;28;20038;-85
2022/10/05 05:57:16;;;;;;;10.55;8.38;;;;;;;13.53;85.63;101457.47;4988432;28;20487;-85
2022/10/05 05:59:53;;;;;;;11.55;8.73;;;;;;;13.52;85.54;101460.19;4982275;28;20034;-85
2022/10/05 06:02:37;;;;;;;10.60;8.77;;;;;;;13.42;85.36;101443.66;4979303;28;20034;-85
2022/10/05 06:05:22;;;;;;;13.05;8.20;;;;;;;13.47;85.60;101447.53;4982493;28;20030;-85
2022/10/05 06:07:51;;;;;;;9.90;7.97;;;;;;;13.51;85.25;101458.56;4978396;28;20041;-85
2022/10/05 06:10:23;;;;;;;9.57;7.70;;;;;;;13.50;85.35;101451.69;4985118;28;20033;-84
2022/10/05 06:12:52;;;;;;;9.82;7.35;;;;;;;13.41;85.40;101452.44;4988969;28;20026;-84
2022/10/05 06:15:26;;;;;;;10.40;7.45;;;;;;;13.50;85.23;101459.50;4988372;28;20049;-85
2022/10/05 06:17:55;;;;;;;9.65;7.47;;;;;;;13.48;85.37;101458.81;4990319;28;20034;-83
2022/10/05 06:20:29;;;;;;;;;;;;;;;13.58;85.13;101459.69;4987460;28;20416;-83
2022/10/05 06:22:59;;;;;;;9.80;7.25;;;;;;;13.50;85.15;101454.28;5002426;28;19922;-83
2022/10/05 06:25:52;;;;;;;9.88;7.47;;;;;;;13.51;85.04;101453.34;4987828;28;20022;-83
2022/10/05 06:28:18;;;;;;;12.75;7.93;;;;;;;13.43;85.23;101448.78;4984997;28;20062;-83
2022/10/05 06:30:52;;;;;;;9.20;7.30;;;;;;;13.49;85.14;101460.47;4987023;28;20408;-83
2022/10/05 06:33:27;;;;;;;9.35;7.20;;;;;;;13.49;85.37;101460.47;4979722;28;20534;-83
2022/10/05 06:36:22;;;;;;;9.65;6.95;;;;;;;13.46;85.15;101453.72;4988288;28;20511;-83
2022/10/05 06:39:42;;;;;;;10.80;7.57;;;;;;;13.47;85.63;101467.56;4984379;28;20125;-83
2022/10/05 06:42:48;;;;;;;9.82;7.28;;;;;;;13.53;85.23;101461.84;4928237;29;20047;-82
2022/10/05 06:45:18;;;;;;;8.98;7.53;;;;;;;13.49;85.35;101466.50;4869847;29;20037;-82
2022/10/05 06:48:13;;;;;;;8.70;7.20;;;;;;;13.51;85.40;101466.38;4872756;29;20160;-83
2022/10/05 06:50:56;;;;;;;10.38;7.35;;;;;;;13.43;85.78;101450.56;4871038;29;20053;-82
2022/10/05 06:53:29;;;;;;;10.00;7.80;;;;;;;13.49;85.51;101465.69;4868023;29;20132;-83
2022/10/05 06:56:06;;;;;;;9.77;7.53;;;;;;;13.40;85.42;101445.59;4872000;29;20306;-82
2022/10/05 06:58:53;;;;;;;10.80;7.25;;;;;;;13.52;85.52;101466.22;4869750;29;20089;-83
2022/10/05 07:01:49;;;;;;;11.88;7.45;;;;;;;13.52;84.98;101449.78;4871451;29;20132;-83
2022/10/05 07:04:21;;;;;;;10.65;7.57;;;;;;;13.47;85.31;101455.38;4868068;29;20112;-83
2022/10/05 07:06:56;;;;;;;15.13;7.43;;;;;;;13.53;85.21;101461.84;4869342;29;20120;-83
2022/10/05 07:09:42;;;;;;;8.63;6.78;;;;;;;13.57;85.20;101462.41;4856869;29;20044;-83
2022/10/05 07:12:28;;;;;;;10.43;6.90;;;;;;;13.55;85.17;101465.16;4866030;29;20059;-83
2022/10/05 07:15:18;;;;;;;10.27;7.10;;;;;;;13.59;85.31;101465.72;4875314;29;20045;-84
2022/10/05 07:17:54;;;;;;;9.60;6.60;;;;;;;13.53;85.26;101459.22;4987567;28;20098;-83
2022/10/05 07:20:45;;;;;;;10.52;6.80;;;;;;;13.61;84.86;101464.66;4985843;28;20018;-84
2022/10/05 07:23:26;;;;;;;8.90;6.88;;;;;;;13.41;84.86;101439.41;4984370;28;20031;-84
2022/10/05 07:26:00;;;;;;;8.57;6.57;;;;;;;13.59;84.91;101466.56;4973597;28;20069;-83
2022/10/05 07:28:46;;;;;;;8.85;7.00;;;;;;;13.61;84.25;101475.06;4983094;28;20096;-83
2022/10/05 07:31:35;;;;;;;9.02;6.90;;;;;;;13.54;84.89;101458.31;4983818;28;20118;-83
2022/10/05 07:34:20;;;;;;;;;;;;;;;13.72;84.58;101477.59;4978298;28;20037;-83
2022/10/05 07:40:22;;;;;;;9.27;6.47;;;;;;;13.70;84.57;101469.06;4987589;28;20096;-83
2022/10/05 07:43:02;;;;;;;8.55;6.20;;;;;;;13.59;84.97;101450.94;4984861;28;20117;-82
2022/10/05 07:45:44;;;;;;;9.25;6.18;;;;;;;13.69;84.57;101467.41;4983003;28;20035;-83
2022/10/05 07:48:19;;;;;;;8.43;5.95;;;;;;;13.69;84.46;101471.81;4986229;28;20259;-83
2022/10/05 07:51:06;;;;;;;7.95;5.68;;;;;;;13.74;84.35;101470.47;4982388;28;20038;-82
2022/10/05 07:53:37;;;;;;;7.32;5.60;;;;;;;13.73;84.42;101474.03;4977314;28;20030;-82
2022/10/05 07:56:28;;;;;;;9.27;5.50;;;;;;;13.79;84.17;101467.47;4974016;28;20515;-83
2022/10/05 07:59:06;;;;;;;7.80;5.25;;;;;;;13.61;83.61;101438.59;4979961;28;20074;-82
2022/10/05 08:01:40;;;;;;;7.28;4.68;;;;;;;13.72;83.50;101450.72;4986525;28;20069;-83
2022/10/05 08:04:21;;;;;;;7.68;4.70;;;;;;;13.86;83.57;101467.78;4977299;28;20548;-83
2022/10/05 08:06:50;;;;;;;8.10;5.10;;;;;;;13.85;83.38;101466.13;4987463;28;20022;-82
2022/10/05 08:09:35;;;;;;;7.68;5.30;;;;;;;13.86;83.47;101457.34;4988413;28;20357;-83
2022/10/05 08:12:23;;;;;;;7.50;5.43;;;;;;;13.95;83.46;101469.63;4987607;28;20116;-82
2022/10/05 08:14:56;;;;;;;7.13;4.93;;;;;;;13.97;84.05;101472.91;4979177;28;20126;-81
2022/10/05 08:17:36;;;;;;;6.32;4.80;;;;;;;13.99;83.73;101460.53;4975887;28;20037;-83
2022/10/05 08:20:23;;;;;;;6.38;4.72;;;;;;;14.01;83.79;101461.25;4986376;28;20105;-84
2022/10/05 08:22:56;;;;;;;7.70;5.10;;;;;;;13.89;83.41;101431.03;4981316;28;20030;-83
2022/10/05 08:25:28;;;;;;;8.77;5.20;;;;;;;13.94;83.81;101434.06;4986520;28;20084;-83
2022/10/05 08:28:07;;;;;;;8.43;5.47;;;;;;;14.07;84.08;101447.69;4988001;28;20026;-82
2022/10/05 08:30:47;;;;;;;8.55;5.38;;;;;;;13.97;83.45;101423.34;4987825;28;20480;-83
2022/10/05 08:33:17;;;;;;;6.22;5.07;;;;;;;14.08;83.38;101438.91;4985360;28;20078;-82
2022/10/05 08:35:47;;;;;;;7.40;5.40;;;;;;;14.16;82.84;101446.88;4987786;28;20479;-83
2022/10/05 08:38:15;;;;;;;8.57;5.43;;;;;;;14.22;83.58;101448.13;4976005;28;20062;-83
2022/10/05 08:41:06;;;;;;;9.52;5.68;;;;;;;14.28;83.52;101450.22;4987474;28;20450;-84
2022/10/05 08:43:53;;;;;;;9.52;5.80;;;;;;;14.30;83.49;101451.72;4979837;28;20034;-83
2022/10/05 08:46:31;;;;;;;7.72;5.47;;;;;;;14.31;83.13;101448.16;4984949;28;20026;-81
2022/10/05 08:49:03;;;;;;;9.40;5.30;;;;;;;14.35;82.87;101444.31;4987228;28;20057;-82
2022/10/05 08:52:06;;;;;;;7.03;5.35;;;;;;;14.40;83.24;101448.31;4984757;28;20045;-84
2022/10/05 08:54:42;;;;;;;7.57;5.38;;;;;;;14.41;83.51;101434.31;4974206;28;20041;-83
2022/10/05 08:57:32;;;;;;;8.77;5.85;;;;;;;14.47;83.16;101431.19;4986759;28;20029;-84
2022/10/05 09:00:03;;;;;;;8.35;5.88;;;;;;;14.49;83.01;101429.25;4984779;28;20507;-84
2022/10/05 09:02:51;;;;;;;9.05;5.97;;;;;;;14.57;82.66;101429.44;4981509;28;20034;-83
2022/10/05 09:05:40;;;;;;;6.90;5.72;;;;;;;14.61;82.75;101442.03;4986587;28;20041;-83
2022/10/05 09:08:33;;;;;;;9.65;5.88;;;;;;;14.69;83.32;101430.13;4985990;28;20058;-82
2022/10/05 09:11:17;;;;;;;8.43;5.55;;;;;;;14.67;82.98;101411.94;4970412;28;20038;-83
2022/10/05 09:14:04;;;;;;;9.25;6.00;;;;;;;14.80;82.89;101428.19;4986794;28;20027;-83
2022/10/05 09:16:51;;;;;;;10.15;6.25;;;;;;;14.85;82.51;101420.78;4983303;28;20061;-83
2022/10/05 09:19:35;;;;;;;7.17;5.60;;;;;;;14.89;82.29;101423.91;4984584;28;20062;-83
2022/10/05 09:22:39;;;;;;;9.48;5.60;;;;;;;14.96;82.33;101421.56;4980223;28;20472;-83
2022/10/05 09:25:54;;;;;;;8.27;5.90;;;;;;;15.01;81.68;101419.38;4969801;28;20116;-84
2022/10/05 09:28:19;;;;;;;7.75;5.53;;;;;;;15.07;82.03;101418.81;4984605;28;20041;-84
2022/10/05 09:31:15;;;;;;;10.07;5.45;;;;;;;15.03;81.62;101412.22;4984514;28;20384;-81
2022/10/05 09:34:18;;;;;;;9.63;5.40;;;;;;;15.16;81.33;101417.97;4984726;28;20117;-82
2022/10/05 09:36:46;;;;;;;7.55;5.20;;;;;;;15.19;81.67;101417.69;4985229;28;20451;-82
2022/10/05 09:39:19;;;;;;;7.85;5.20;;;;;;;15.24;81.32;101418.09;4983287;28;20037;-82
2022/10/05 09:42:10;;;;;;;7.80;5.20;;;;;;;15.26;80.66;101418.78;4984953;28;20049;-83
2022/10/05 09:44:50;;;;;;;9.57;5.07;;;;;;;15.29;81.06;101413.25;4984688;28;20049;-84
2022/10/05 09:47:24;;;;;;;8.98;5.10;;;;;;;15.31;80.77;101416.56;4993327;28;20062;-82
2022/10/05 09:50:44;;;;;;;8.45;5.40;;;;;;;15.39;80.95;101421.91;4985407;28;20046;-82
2022/10/05 09:53:25;;;;;;;9.05;5.13;;;;;;;15.47;81.06;101405.50;4940875;29;20039;-83
2022/10/05 09:56:43;;;;;;;9.00;5.15;;;;;;;15.54;80.51;101397.91;4942261;29;20055;-82
2022/10/05 09:59:23;;;;;;;6.75;4.65;;;;;;;15.57;79.70;101389.78;4945823;29;20030;-83
2022/10/05 10:02:08;;;;;;;9.00;5.30;;;;;;;15.62;79.79;101383.19;4942156;29;20039;-84
2022/10/05 10:05:04;;;;;;;7.30;5.10;;;;;;;15.45;79.54;101341.28;4941158;29;20090;-83
2022/10/05 10:07:50;;;;;;;8.73;4.78;;;;;;;15.39;79.40;101319.97;4942583;29;20050;-84
2022/10/05 10:10:53;;;;;;;8.73;4.80;;;;;;;15.78;79.81;101372.13;4944368;29;20465;-83
2022/10/05 10:13:40;;;;;;;6.93;4.40;;;;;;;15.87;80.44;101371.22;4945075;29;20031;-84
2022/10/05 10:16:58;;;;;;;6.15;4.53;;;;;;;15.95;79.59;101372.31;4945320;29;20355;-84
2022/10/05 10:19:29;;;;;;;6.38;4.50;;;;;;;16.01;78.69;101362.06;4925394;29;20059;-83
2022/10/05 10:22:26;;;;;;;7.13;4.40;;;;;;;16.06;78.15;101359.03;4922133;29;20048;-84
2022/10/05 10:25:33;;;;;;;6.85;4.55;;;;;;;15.87;78.21;101320.69;4909986;29;20047;-83
2022/10/05 10:28:26;;;;;;;9.38;4.70;;;;;;;16.12;78.73;101359.25;4912519;29;20043;-83
2022/10/05 10:31:23;;;;;;;8.10;5.20;;;;;;;16.14;77.68;101352.06;4942287;29;20035;-84
2022/10/05 10:34:13;;;;;;;6.38;4.50;;;;;;;16.16;78.00;101357.13;4944789;29;20043;-85
2022/10/05 10:37:18;;;;;;;7.05;4.32;;;;;;;16.20;77.98;101345.41;4945232;29;20448;-84
2022/10/05 10:39:55;;;;;;;8.82;4.40;;;;;;;16.21;77.50;101357.50;4946533;28;20125;-83
2022/10/05 10:42:27;;;;;;;5.97;4.03;;;;;;;16.21;77.04;101347.03;4948386;29;20054;-84
2022/10/05 10:45:18;;;;;;;7.18;4.32;;;;;;;16.24;77.54;101345.94;4947609;29;20031;-84
2022/10/05 10:48:00;;;;;;;8.40;4.45;;;;;;;16.28;77.37;101348.09;4931736;29;20055;-84
2022/10/05 10:51:03;;;;;;;6.97;4.10;;;;;;;16.31;78.01;101353.03;4947846;29;20126;-84
2022/10/05 10:54:02;;;;;;;7.88;4.07;;;;;;;16.27;77.62;101330.75;4966065;28;20040;-84
2022/10/05 10:56:55;;;;;;;6.65;4.20;;;;;;;16.36;77.81;101340.31;4986921;28;20030;-84
2022/10/05 10:59:23;;;;;;;7.13;3.88;;;;;;;16.37;76.51;101335.91;4986905;28;20026;-83
2022/10/05 11:02:26;;;;;;;6.97;3.75;;;;;;;16.42;77.87;101331.88;4971706;28;20033;-84
2022/10/05 11:04:55;;;;;;;7.80;4.18;;;;;;;16.45;77.53;101339.41;4984728;28;20116;-84
2022/10/05 11:07:35;;;;;;;6.18;3.75;;;;;;;16.50;77.38;101335.53;4986535;28;20034;-84
2022/10/05 11:10:17;;;;;;;5.35;3.90;;;;;;;16.53;77.58;101340.47;4985907;28;20038;-84
2022/10/05 11:13:10;;;;;;;7.45;4.20;;;;;;;16.55;77.67;101330.66;4987687;28;20092;-84
2022/10/05 11:15:57;;;;;;;8.38;4.22;;;;;;;16.58;77.69;101338.22;4979820;28;20029;-84
2022/10/05 11:18:51;;;;;;;5.93;3.95;;;;;;;16.59;77.17;101324.16;4986706;28;20110;-84
2022/10/05 11:21:42;;;;;;;7.90;4.50;;;;;;;16.50;76.61;101309.34;4981880;28;20471;-84
2022/10/05 11:24:59;;;;;;;6.15;3.80;;;;;;;16.65;77.27;101315.69;4988455;28;20037;-84
2022/10/05 11:28:00;;;;;;;6.18;3.78;;;;;;;16.67;77.73;101305.88;4958111;28;20039;-84
2022/10/05 11:30:40;;;;;;;7.80;3.97;;;;;;;16.69;76.21;101304.75;4932308;28;20496;-84
2022/10/05 11:33:41;;;;;;;6.75;3.88;;;;;;;16.55;77.40;101275.66;4967520;28;20048;-84
2022/10/05 11:36:31;;;;;;;5.72;3.90;;;;;;;16.45;76.86;101250.38;4949910;28;20459;-85
2022/10/05 11:39:00;;;;;;;6.40;4.15;;;;;;;16.82;76.68;101301.75;4966336;28;20038;-84
2022/10/05 11:41:33;;;;;;;6.75;3.70;;;;;;;16.91;76.99;101295.56;4966342;28;20061;-83
2022/10/05 11:44:20;;;;;;;6.60;4.03;;;;;;;16.91;75.84;101287.72;4948532;28;20034;-84
2022/10/05 11:47:08;;;;;;;6.35;3.80;;;;;;;16.94;76.66;101282.16;4965045;28;20035;-84
2022/10/05 11:49:43;;;;;;;6.45;3.75;;;;;;;16.91;76.92;101277.22;4964868;28;20031;-84
2022/10/05 11:52:20;;;;;;;5.55;3.75;;;;;;;17.05;75.93;101280.25;4962610;28;20069;-84
2022/10/05 11:55:22;;;;;;;7.57;3.90;;;;;;;17.10;76.06;101275.38;4965093;28;20053;-84
2022/10/05 11:58:12;;;;;;;5.78;3.38;;;;;;;16.97;76.00;101250.44;4975790;28;20034;-84
2022/10/05 12:00:56;;;;;;;5.50;3.30;;;;;;;17.22;76.76;101268.88;4987031;28;20034;-83
2022/10/05 12:03:24;;;;;;;6.22;3.33;;;;;;;17.33;76.37;101271.22;5000788;28;20030;-85
2022/10/05 12:06:07;;;;;;;7.13;3.58;;;;;;;17.43;76.06;101266.66;4984705;28;20479;-85
2022/10/05 12:08:50;;;;;;;8.13;2.92;;;;;;;17.52;73.70;101260.44;4985553;28;20050;-84
2022/10/05 12:11:44;;;;;;;5.35;2.80;;;;;;;17.61;74.65;101257.88;4986849;28;20034;-84
2022/10/05 12:14:39;;;;;;;5.18;2.70;;;;;;;17.64;73.81;101257.53;4984054;28;20030;-84
2022/10/05 12:17:41;;;;;;;5.40;2.70;;;;;;;17.71;73.79;101253.28;4984965;28;20053;-83
2022/10/05 12:20:37;;;;;;;4.97;2.60;;;;;;;17.53;73.24;101220.13;4983061;28;20038;-84
2022/10/05 12:23:43;;;;;;;7.20;3.25;;;;;;;17.77;73.25;101257.91;4973975;28;20042;-84
2022/10/05 12:26:13;;;;;;;4.50;2.75;;;;;;;17.43;71.95;101213.38;4942149;29;20034;-85
2022/10/05 12:29:12;;;;;;;4.80;2.42;;;;;;;17.38;73.38;101189.47;4928968;29;20043;-84
2022/10/05 12:31:55;;;;;;;5.82;2.50;;;;;;;17.73;73.19;101246.94;4918150;29;20027;-84
2022/10/05 12:34:47;;;;;;;5.13;2.60;;;;;;;17.80;73.36;101241.84;4943248;29;20090;-84